sensor_id;sensor_type;location;lat;lon;timestamp;P1;durP1;ratioP1;P2;durP2;ratioP2
81685;SDS011;71102;50.960;6.888;2024-03-08T00:00:16;19.47;;;11.87;;
81685;SDS011;71102;50.960;6.888;2024-03-08T00:02:42;18.75;;;13.68;;
81685;SDS011;71102;50.960;6.888;2024-03-08T00:05:07;21.55;;;13.77;;
81685;SDS011;71102;50.960;6.888;2024-03-08T00:07:33;20.45;;;13.38;;
81685;SDS011;71102;50.960;6.888;2024-03-08T00:09:58;16.70;;;12.03;;
81685;SDS011;71102;50.960;6.888;2024-03-08T00:12:23;22.03;;;13.80;;
81685;SDS011;71102;50.960;6.888;2024-03-08T00:14:48;19.87;;;13.70;;
81685;SDS011;71102;50.960;6.888;2024-03-08T00:17:14;21.23;;;13.67;;
81685;SDS011;71102;50.960;6.888;2024-03-08T00:19:39;22.07;;;13.17;;
81685;SDS011;71102;50.960;6.888;2024-03-08T00:22:04;20.90;;;14.40;;
81685;SDS011;71102;50.960;6.888;2024-03-08T00:24:29;21.90;;;13.37;;
81685;SDS011;71102;50.960;6.888;2024-03-08T00:26:55;19.97;;;13.17;;
81685;SDS011;71102;50.960;6.888;2024-03-08T00:29:20;23.30;;;13.70;;
81685;SDS011;71102;50.960;6.888;2024-03-08T00:31:45;23.93;;;14.67;;
81685;SDS011;71102;50.960;6.888;2024-03-08T00:34:10;19.50;;;12.57;;
81685;SDS011;71102;50.960;6.888;2024-03-08T00:36:35;20.67;;;14.77;;
81685;SDS011;71102;50.960;6.888;2024-03-08T00:39:01;18.80;;;11.53;;
81685;SDS011;71102;50.960;6.888;2024-03-08T00:41:26;23.87;;;14.33;;
81685;SDS011;71102;50.960;6.888;2024-03-08T00:43:51;19.03;;;12.73;;
81685;SDS011;71102;50.960;6.888;2024-03-08T00:46:16;18.87;;;12.80;;
81685;SDS011;71102;50.960;6.888;2024-03-08T00:48:41;22.53;;;14.93;;
81685;SDS011;71102;50.960;6.888;2024-03-08T00:51:07;20.47;;;13.27;;
81685;SDS011;71102;50.960;6.888;2024-03-08T00:53:32;18.37;;;13.50;;
81685;SDS011;71102;50.960;6.888;2024-03-08T00:55:57;22.03;;;14.90;;
81685;SDS011;71102;50.960;6.888;2024-03-08T00:58:22;27.60;;;14.93;;
81685;SDS011;71102;50.960;6.888;2024-03-08T01:00:48;21.43;;;14.87;;
81685;SDS011;71102;50.960;6.888;2024-03-08T01:03:13;20.70;;;14.45;;
81685;SDS011;71102;50.960;6.888;2024-03-08T01:05:38;21.07;;;14.47;;
81685;SDS011;71102;50.960;6.888;2024-03-08T01:08:03;20.60;;;14.37;;
81685;SDS011;71102;50.960;6.888;2024-03-08T01:10:29;19.80;;;13.05;;
81685;SDS011;71102;50.960;6.888;2024-03-08T01:12:54;21.17;;;14.40;;
81685;SDS011;71102;50.960;6.888;2024-03-08T01:15:19;20.60;;;13.93;;
81685;SDS011;71102;50.960;6.888;2024-03-08T01:17:44;21.43;;;15.67;;
81685;SDS011;71102;50.960;6.888;2024-03-08T01:20:10;23.77;;;13.77;;
81685;SDS011;71102;50.960;6.888;2024-03-08T01:22:35;21.75;;;14.68;;
81685;SDS011;71102;50.960;6.888;2024-03-08T01:25:00;22.27;;;13.93;;
81685;SDS011;71102;50.960;6.888;2024-03-08T01:27:25;18.30;;;11.97;;
81685;SDS011;71102;50.960;6.888;2024-03-08T01:29:50;17.73;;;12.67;;
81685;SDS011;71102;50.960;6.888;2024-03-08T01:32:16;21.47;;;15.73;;
81685;SDS011;71102;50.960;6.888;2024-03-08T01:34:41;21.87;;;14.17;;
81685;SDS011;71102;50.960;6.888;2024-03-08T01:37:06;23.57;;;14.13;;
81685;SDS011;71102;50.960;6.888;2024-03-08T01:39:31;18.70;;;12.43;;
81685;SDS011;71102;50.960;6.888;2024-03-08T01:41:56;22.30;;;13.60;;
81685;SDS011;71102;50.960;6.888;2024-03-08T01:44:22;22.53;;;14.67;;
81685;SDS011;71102;50.960;6.888;2024-03-08T01:46:47;18.90;;;12.77;;
81685;SDS011;71102;50.960;6.888;2024-03-08T01:49:13;20.48;;;13.10;;
81685;SDS011;71102;50.960;6.888;2024-03-08T01:51:39;18.43;;;12.23;;
81685;SDS011;71102;50.960;6.888;2024-03-08T01:54:04;25.27;;;14.57;;
81685;SDS011;71102;50.960;6.888;2024-03-08T01:56:30;22.20;;;14.20;;
81685;SDS011;71102;50.960;6.888;2024-03-08T01:58:55;20.35;;;13.48;;
81685;SDS011;71102;50.960;6.888;2024-03-08T02:01:20;22.63;;;13.20;;
81685;SDS011;71102;50.960;6.888;2024-03-08T02:03:45;20.27;;;13.07;;
81685;SDS011;71102;50.960;6.888;2024-03-08T02:06:11;25.53;;;12.97;;
81685;SDS011;71102;50.960;6.888;2024-03-08T02:08:36;18.38;;;11.60;;
81685;SDS011;71102;50.960;6.888;2024-03-08T02:11:02;22.50;;;13.75;;
81685;SDS011;71102;50.960;6.888;2024-03-08T02:13:27;20.50;;;13.25;;
81685;SDS011;71102;50.960;6.888;2024-03-08T02:15:53;20.03;;;13.90;;
81685;SDS011;71102;50.960;6.888;2024-03-08T02:18:19;23.63;;;13.75;;
81685;SDS011;71102;50.960;6.888;2024-03-08T02:20:45;19.15;;;11.43;;
81685;SDS011;71102;50.960;6.888;2024-03-08T02:23:11;19.30;;;10.90;;
81685;SDS011;71102;50.960;6.888;2024-03-08T02:25:36;21.00;;;13.33;;
81685;SDS011;71102;50.960;6.888;2024-03-08T02:28:01;21.33;;;13.93;;
81685;SDS011;71102;50.960;6.888;2024-03-08T02:30:26;21.90;;;13.63;;
81685;SDS011;71102;50.960;6.888;2024-03-08T02:32:51;22.10;;;13.70;;
81685;SDS011;71102;50.960;6.888;2024-03-08T02:35:17;24.20;;;14.47;;
81685;SDS011;71102;50.960;6.888;2024-03-08T02:37:42;20.43;;;11.73;;
81685;SDS011;71102;50.960;6.888;2024-03-08T02:40:07;20.87;;;14.53;;
81685;SDS011;71102;50.960;6.888;2024-03-08T02:42:32;24.85;;;14.60;;
81685;SDS011;71102;50.960;6.888;2024-03-08T02:44:58;22.17;;;14.10;;
81685;SDS011;71102;50.960;6.888;2024-03-08T02:47:23;23.53;;;14.67;;
81685;SDS011;71102;50.960;6.888;2024-03-08T02:49:48;24.17;;;15.63;;
81685;SDS011;71102;50.960;6.888;2024-03-08T02:52:13;18.03;;;9.83;;
81685;SDS011;71102;50.960;6.888;2024-03-08T02:54:38;23.33;;;14.63;;
81685;SDS011;71102;50.960;6.888;2024-03-08T02:57:04;22.10;;;13.70;;
81685;SDS011;71102;50.960;6.888;2024-03-08T02:59:29;21.17;;;13.43;;
81685;SDS011;71102;50.960;6.888;2024-03-08T03:01:54;23.60;;;15.10;;
81685;SDS011;71102;50.960;6.888;2024-03-08T03:04:19;21.40;;;12.87;;
81685;SDS011;71102;50.960;6.888;2024-03-08T03:06:44;23.47;;;14.77;;
81685;SDS011;71102;50.960;6.888;2024-03-08T03:09:10;24.07;;;13.67;;
81685;SDS011;71102;50.960;6.888;2024-03-08T03:11:35;21.63;;;12.73;;
81685;SDS011;71102;50.960;6.888;2024-03-08T03:14:00;21.67;;;13.20;;
81685;SDS011;71102;50.960;6.888;2024-03-08T03:16:25;23.67;;;14.70;;
81685;SDS011;71102;50.960;6.888;2024-03-08T03:18:50;24.07;;;15.30;;
81685;SDS011;71102;50.960;6.888;2024-03-08T03:21:15;24.43;;;14.10;;
81685;SDS011;71102;50.960;6.888;2024-03-08T03:23:42;24.38;;;14.30;;
81685;SDS011;71102;50.960;6.888;2024-03-08T03:26:08;21.83;;;15.00;;
81685;SDS011;71102;50.960;6.888;2024-03-08T03:28:33;22.75;;;14.43;;
81685;SDS011;71102;50.960;6.888;2024-03-08T03:30:59;22.93;;;14.53;;
81685;SDS011;71102;50.960;6.888;2024-03-08T03:33:24;23.63;;;13.93;;
81685;SDS011;71102;50.960;6.888;2024-03-08T03:35:49;24.30;;;15.55;;
81685;SDS011;71102;50.960;6.888;2024-03-08T03:38:15;21.57;;;12.90;;
81685;SDS011;71102;50.960;6.888;2024-03-08T03:40:40;20.27;;;14.30;;
81685;SDS011;71102;50.960;6.888;2024-03-08T03:43:05;26.10;;;16.47;;
81685;SDS011;71102;50.960;6.888;2024-03-08T03:45:31;23.88;;;13.27;;
81685;SDS011;71102;50.960;6.888;2024-03-08T03:47:56;21.60;;;14.48;;
81685;SDS011;71102;50.960;6.888;2024-03-08T03:50:21;23.07;;;14.13;;
81685;SDS011;71102;50.960;6.888;2024-03-08T03:52:46;20.77;;;12.67;;
81685;SDS011;71102;50.960;6.888;2024-03-08T03:55:12;22.65;;;13.52;;
81685;SDS011;71102;50.960;6.888;2024-03-08T03:57:37;20.75;;;13.45;;
81685;SDS011;71102;50.960;6.888;2024-03-08T04:00:03;21.97;;;15.57;;
81685;SDS011;71102;50.960;6.888;2024-03-08T04:02:37;21.17;;;14.38;;
81685;SDS011;71102;50.960;6.888;2024-03-08T04:05:03;22.38;;;14.50;;
81685;SDS011;71102;50.960;6.888;2024-03-08T04:07:29;21.45;;;13.68;;
81685;SDS011;71102;50.960;6.888;2024-03-08T04:09:54;22.97;;;15.17;;
81685;SDS011;71102;50.960;6.888;2024-03-08T04:12:19;19.87;;;13.97;;
81685;SDS011;71102;50.960;6.888;2024-03-08T04:14:44;21.97;;;14.80;;
81685;SDS011;71102;50.960;6.888;2024-03-08T04:17:10;21.07;;;13.83;;
81685;SDS011;71102;50.960;6.888;2024-03-08T04:19:35;21.00;;;13.73;;
81685;SDS011;71102;50.960;6.888;2024-03-08T04:22:00;26.30;;;15.90;;
81685;SDS011;71102;50.960;6.888;2024-03-08T04:24:26;20.55;;;13.80;;
81685;SDS011;71102;50.960;6.888;2024-03-08T04:26:51;18.80;;;10.33;;
81685;SDS011;71102;50.960;6.888;2024-03-08T04:29:16;22.10;;;14.23;;
81685;SDS011;71102;50.960;6.888;2024-03-08T04:31:41;21.00;;;13.40;;
81685;SDS011;71102;50.960;6.888;2024-03-08T04:34:06;21.13;;;15.67;;
81685;SDS011;71102;50.960;6.888;2024-03-08T04:36:31;25.13;;;15.20;;
81685;SDS011;71102;50.960;6.888;2024-03-08T04:38:57;19.77;;;11.97;;
81685;SDS011;71102;50.960;6.888;2024-03-08T04:41:22;22.20;;;14.60;;
81685;SDS011;71102;50.960;6.888;2024-03-08T04:43:47;18.97;;;12.43;;
81685;SDS011;71102;50.960;6.888;2024-03-08T04:46:12;21.80;;;14.63;;
81685;SDS011;71102;50.960;6.888;2024-03-08T04:48:37;21.73;;;13.87;;
81685;SDS011;71102;50.960;6.888;2024-03-08T04:51:03;23.43;;;16.17;;
81685;SDS011;71102;50.960;6.888;2024-03-08T04:53:28;22.60;;;14.80;;
81685;SDS011;71102;50.960;6.888;2024-03-08T04:55:53;24.17;;;15.07;;
81685;SDS011;71102;50.960;6.888;2024-03-08T04:58:19;21.97;;;14.57;;
81685;SDS011;71102;50.960;6.888;2024-03-08T05:00:44;21.77;;;14.53;;
81685;SDS011;71102;50.960;6.888;2024-03-08T05:03:09;21.63;;;14.27;;
81685;SDS011;71102;50.960;6.888;2024-03-08T05:05:34;23.63;;;13.17;;
81685;SDS011;71102;50.960;6.888;2024-03-08T05:07:59;21.20;;;11.53;;
81685;SDS011;71102;50.960;6.888;2024-03-08T05:10:25;26.93;;;15.23;;
81685;SDS011;71102;50.960;6.888;2024-03-08T05:12:50;22.97;;;15.17;;
81685;SDS011;71102;50.960;6.888;2024-03-08T05:15:15;23.10;;;14.23;;
81685;SDS011;71102;50.960;6.888;2024-03-08T05:17:40;25.53;;;14.30;;
81685;SDS011;71102;50.960;6.888;2024-03-08T05:20:06;21.97;;;13.27;;
81685;SDS011;71102;50.960;6.888;2024-03-08T05:22:31;20.52;;;13.27;;
81685;SDS011;71102;50.960;6.888;2024-03-08T05:24:56;20.30;;;13.53;;
81685;SDS011;71102;50.960;6.888;2024-03-08T05:27:21;21.57;;;14.13;;
81685;SDS011;71102;50.960;6.888;2024-03-08T05:29:47;24.40;;;14.60;;
81685;SDS011;71102;50.960;6.888;2024-03-08T05:32:12;20.43;;;13.27;;
81685;SDS011;71102;50.960;6.888;2024-03-08T05:34:37;21.13;;;12.53;;
81685;SDS011;71102;50.960;6.888;2024-03-08T05:37:02;23.15;;;14.95;;
81685;SDS011;71102;50.960;6.888;2024-03-08T05:39:28;22.27;;;13.70;;
81685;SDS011;71102;50.960;6.888;2024-03-08T05:41:53;23.37;;;14.87;;
81685;SDS011;71102;50.960;6.888;2024-03-08T05:44:18;23.50;;;13.73;;
81685;SDS011;71102;50.960;6.888;2024-03-08T05:46:43;23.60;;;13.33;;
81685;SDS011;71102;50.960;6.888;2024-03-08T05:49:08;23.63;;;13.90;;
81685;SDS011;71102;50.960;6.888;2024-03-08T05:51:34;24.90;;;15.40;;
81685;SDS011;71102;50.960;6.888;2024-03-08T05:54:03;21.70;;;11.40;;
81685;SDS011;71102;50.960;6.888;2024-03-08T05:56:29;23.50;;;13.18;;
81685;SDS011;71102;50.960;6.888;2024-03-08T05:58:54;22.20;;;13.85;;
81685;SDS011;71102;50.960;6.888;2024-03-08T06:01:19;22.17;;;14.00;;
81685;SDS011;71102;50.960;6.888;2024-03-08T06:03:44;24.73;;;14.33;;
81685;SDS011;71102;50.960;6.888;2024-03-08T06:06:11;24.13;;;13.67;;
81685;SDS011;71102;50.960;6.888;2024-03-08T06:08:37;21.13;;;11.45;;
81685;SDS011;71102;50.960;6.888;2024-03-08T06:11:02;23.00;;;13.83;;
81685;SDS011;71102;50.960;6.888;2024-03-08T06:13:27;25.73;;;16.57;;
81685;SDS011;71102;50.960;6.888;2024-03-08T06:15:52;21.37;;;13.83;;
81685;SDS011;71102;50.960;6.888;2024-03-08T06:18:17;25.63;;;15.87;;
81685;SDS011;71102;50.960;6.888;2024-03-08T06:20:43;24.33;;;15.97;;
81685;SDS011;71102;50.960;6.888;2024-03-08T06:23:08;27.70;;;17.23;;
81685;SDS011;71102;50.960;6.888;2024-03-08T06:25:33;21.43;;;14.73;;
81685;SDS011;71102;50.960;6.888;2024-03-08T06:27:58;25.33;;;15.30;;
81685;SDS011;71102;50.960;6.888;2024-03-08T06:30:23;24.53;;;15.50;;
81685;SDS011;71102;50.960;6.888;2024-03-08T06:32:49;23.07;;;14.17;;
81685;SDS011;71102;50.960;6.888;2024-03-08T06:35:14;29.47;;;15.10;;
81685;SDS011;71102;50.960;6.888;2024-03-08T06:37:39;25.23;;;15.77;;
81685;SDS011;71102;50.960;6.888;2024-03-08T06:40:04;26.30;;;14.53;;
81685;SDS011;71102;50.960;6.888;2024-03-08T06:42:30;28.15;;;15.98;;
81685;SDS011;71102;50.960;6.888;2024-03-08T06:44:55;19.90;;;13.47;;
81685;SDS011;71102;50.960;6.888;2024-03-08T06:47:20;25.73;;;14.50;;
81685;SDS011;71102;50.960;6.888;2024-03-08T06:49:45;24.37;;;15.87;;
81685;SDS011;71102;50.960;6.888;2024-03-08T06:52:11;23.90;;;16.50;;
81685;SDS011;71102;50.960;6.888;2024-03-08T06:54:36;25.03;;;14.90;;
81685;SDS011;71102;50.960;6.888;2024-03-08T06:57:05;24.75;;;15.50;;
81685;SDS011;71102;50.960;6.888;2024-03-08T06:59:30;21.80;;;14.15;;
81685;SDS011;71102;50.960;6.888;2024-03-08T07:01:56;26.65;;;15.20;;
81685;SDS011;71102;50.960;6.888;2024-03-08T07:04:21;27.83;;;15.93;;
81685;SDS011;71102;50.960;6.888;2024-03-08T07:06:46;26.47;;;15.13;;
81685;SDS011;71102;50.960;6.888;2024-03-08T07:09:11;25.43;;;14.47;;
81685;SDS011;71102;50.960;6.888;2024-03-08T07:11:36;21.40;;;13.50;;
81685;SDS011;71102;50.960;6.888;2024-03-08T07:14:02;25.73;;;14.57;;
81685;SDS011;71102;50.960;6.888;2024-03-08T07:16:27;27.02;;;15.00;;
81685;SDS011;71102;50.960;6.888;2024-03-08T07:18:52;23.37;;;13.87;;
81685;SDS011;71102;50.960;6.888;2024-03-08T07:21:17;25.70;;;15.63;;
81685;SDS011;71102;50.960;6.888;2024-03-08T07:23:43;25.17;;;14.87;;
81685;SDS011;71102;50.960;6.888;2024-03-08T07:26:08;21.08;;;12.32;;
81685;SDS011;71102;50.960;6.888;2024-03-08T07:28:34;24.37;;;14.77;;
81685;SDS011;71102;50.960;6.888;2024-03-08T07:30:59;25.57;;;14.47;;
81685;SDS011;71102;50.960;6.888;2024-03-08T07:33:24;23.10;;;13.57;;
81685;SDS011;71102;50.960;6.888;2024-03-08T07:35:49;26.90;;;14.17;;
81685;SDS011;71102;50.960;6.888;2024-03-08T07:38:14;23.93;;;14.50;;
81685;SDS011;71102;50.960;6.888;2024-03-08T07:40:40;26.07;;;14.40;;
81685;SDS011;71102;50.960;6.888;2024-03-08T07:43:05;22.55;;;11.77;;
81685;SDS011;71102;50.960;6.888;2024-03-08T07:45:31;23.17;;;14.32;;
81685;SDS011;71102;50.960;6.888;2024-03-08T07:47:56;25.03;;;14.83;;
81685;SDS011;71102;50.960;6.888;2024-03-08T07:50:21;25.80;;;14.33;;
81685;SDS011;71102;50.960;6.888;2024-03-08T07:55:40;23.25;;;12.73;;
81685;SDS011;71102;50.960;6.888;2024-03-08T07:58:06;23.65;;;14.63;;
81685;SDS011;71102;50.960;6.888;2024-03-08T08:00:31;24.87;;;15.83;;
81685;SDS011;71102;50.960;6.888;2024-03-08T08:02:57;25.20;;;14.87;;
81685;SDS011;71102;50.960;6.888;2024-03-08T08:05:22;22.93;;;13.83;;
81685;SDS011;71102;50.960;6.888;2024-03-08T08:07:47;25.70;;;14.07;;
81685;SDS011;71102;50.960;6.888;2024-03-08T08:10:13;20.03;;;12.30;;
81685;SDS011;71102;50.960;6.888;2024-03-08T08:12:38;26.10;;;15.88;;
81685;SDS011;71102;50.960;6.888;2024-03-08T08:15:03;23.03;;;12.70;;
81685;SDS011;71102;50.960;6.888;2024-03-08T08:17:29;22.63;;;14.00;;
81685;SDS011;71102;50.960;6.888;2024-03-08T08:19:54;21.07;;;13.07;;
81685;SDS011;71102;50.960;6.888;2024-03-08T08:22:19;24.60;;;15.33;;
81685;SDS011;71102;50.960;6.888;2024-03-08T08:24:44;22.73;;;10.80;;
81685;SDS011;71102;50.960;6.888;2024-03-08T08:27:10;22.53;;;12.83;;
81685;SDS011;71102;50.960;6.888;2024-03-08T08:29:35;25.20;;;15.10;;
81685;SDS011;71102;50.960;6.888;2024-03-08T08:32:00;22.63;;;13.37;;
81685;SDS011;71102;50.960;6.888;2024-03-08T08:34:25;23.27;;;12.80;;
81685;SDS011;71102;50.960;6.888;2024-03-08T08:36:50;20.10;;;12.57;;
81685;SDS011;71102;50.960;6.888;2024-03-08T08:39:16;24.57;;;13.23;;
81685;SDS011;71102;50.960;6.888;2024-03-08T08:41:41;23.70;;;14.70;;
81685;SDS011;71102;50.960;6.888;2024-03-08T08:44:06;22.03;;;13.50;;
81685;SDS011;71102;50.960;6.888;2024-03-08T08:46:32;22.08;;;14.20;;
81685;SDS011;71102;50.960;6.888;2024-03-08T08:48:57;27.37;;;14.67;;
81685;SDS011;71102;50.960;6.888;2024-03-08T08:51:22;23.60;;;14.10;;
81685;SDS011;71102;50.960;6.888;2024-03-08T08:53:47;22.90;;;10.57;;
81685;SDS011;71102;50.960;6.888;2024-03-08T08:56:13;21.63;;;14.33;;
81685;SDS011;71102;50.960;6.888;2024-03-08T08:58:41;21.08;;;15.05;;
81685;SDS011;71102;50.960;6.888;2024-03-08T09:01:07;22.65;;;14.02;;
81685;SDS011;71102;50.960;6.888;2024-03-08T09:03:32;21.10;;;12.73;;
81685;SDS011;71102;50.960;6.888;2024-03-08T09:05:57;20.27;;;13.13;;
81685;SDS011;71102;50.960;6.888;2024-03-08T09:08:22;21.73;;;11.33;;
81685;SDS011;71102;50.960;6.888;2024-03-08T09:10:47;23.20;;;13.53;;
81685;SDS011;71102;50.960;6.888;2024-03-08T09:13:13;20.07;;;11.30;;
81685;SDS011;71102;50.960;6.888;2024-03-08T09:15:38;19.43;;;12.67;;
81685;SDS011;71102;50.960;6.888;2024-03-08T09:18:03;24.60;;;14.33;;
81685;SDS011;71102;50.960;6.888;2024-03-08T09:20:28;24.20;;;14.20;;
81685;SDS011;71102;50.960;6.888;2024-03-08T09:22:54;18.70;;;12.63;;
81685;SDS011;71102;50.960;6.888;2024-03-08T09:25:19;21.40;;;13.60;;
81685;SDS011;71102;50.960;6.888;2024-03-08T09:27:44;19.70;;;13.70;;
81685;SDS011;71102;50.960;6.888;2024-03-08T09:30:09;20.40;;;12.43;;
81685;SDS011;71102;50.960;6.888;2024-03-08T09:32:35;21.65;;;14.93;;
81685;SDS011;71102;50.960;6.888;2024-03-08T09:35:00;17.93;;;12.63;;
81685;SDS011;71102;50.960;6.888;2024-03-08T09:37:26;20.77;;;12.77;;
81685;SDS011;71102;50.960;6.888;2024-03-08T09:39:51;19.48;;;12.52;;
81685;SDS011;71102;50.960;6.888;2024-03-08T09:42:17;22.07;;;13.17;;
81685;SDS011;71102;50.960;6.888;2024-03-08T09:44:45;16.00;;;8.80;;
81685;SDS011;71102;50.960;6.888;2024-03-08T09:47:11;19.42;;;12.35;;
81685;SDS011;71102;50.960;6.888;2024-03-08T09:49:37;18.80;;;11.65;;
81685;SDS011;71102;50.960;6.888;2024-03-08T09:52:03;19.03;;;12.43;;
81685;SDS011;71102;50.960;6.888;2024-03-08T09:54:28;18.90;;;11.65;;
81685;SDS011;71102;50.960;6.888;2024-03-08T09:56:53;19.27;;;12.57;;
81685;SDS011;71102;50.960;6.888;2024-03-08T09:59:19;20.90;;;12.97;;
81685;SDS011;71102;50.960;6.888;2024-03-08T10:01:44;17.00;;;12.10;;
81685;SDS011;71102;50.960;6.888;2024-03-08T10:04:09;20.80;;;12.03;;
81685;SDS011;71102;50.960;6.888;2024-03-08T10:06:34;18.00;;;11.50;;
81685;SDS011;71102;50.960;6.888;2024-03-08T10:09:00;18.13;;;12.27;;
81685;SDS011;71102;50.960;6.888;2024-03-08T10:11:25;17.03;;;11.60;;
81685;SDS011;71102;50.960;6.888;2024-03-08T10:13:51;18.38;;;11.93;;
81685;SDS011;71102;50.960;6.888;2024-03-08T10:16:16;18.63;;;11.00;;
81685;SDS011;71102;50.960;6.888;2024-03-08T10:18:41;16.33;;;11.23;;
81685;SDS011;71102;50.960;6.888;2024-03-08T10:21:07;18.13;;;10.70;;
81685;SDS011;71102;50.960;6.888;2024-03-08T10:23:32;17.95;;;10.60;;
81685;SDS011;71102;50.960;6.888;2024-03-08T10:25:58;16.00;;;10.65;;
81685;SDS011;71102;50.960;6.888;2024-03-08T10:28:33;16.77;;;10.35;;
81685;SDS011;71102;50.960;6.888;2024-03-08T10:30:59;16.87;;;9.90;;
81685;SDS011;71102;50.960;6.888;2024-03-08T10:33:25;12.68;;;7.03;;
81685;SDS011;71102;50.960;6.888;2024-03-08T10:35:50;14.77;;;8.07;;
81685;SDS011;71102;50.960;6.888;2024-03-08T10:38:15;14.50;;;8.20;;
81685;SDS011;71102;50.960;6.888;2024-03-08T10:40:45;11.60;;;6.75;;
81685;SDS011;71102;50.960;6.888;2024-03-08T10:43:14;13.00;;;8.35;;
81685;SDS011;71102;50.960;6.888;2024-03-08T10:45:42;13.80;;;9.30;;
81685;SDS011;71102;50.960;6.888;2024-03-08T10:50:53;13.70;;;8.80;;
81685;SDS011;71102;50.960;6.888;2024-03-08T10:53:18;13.57;;;8.52;;
81685;SDS011;71102;50.960;6.888;2024-03-08T10:55:44;16.35;;;10.90;;
81685;SDS011;71102;50.960;6.888;2024-03-08T10:58:09;13.80;;;7.80;;
81685;SDS011;71102;50.960;6.888;2024-03-08T11:00:35;14.30;;;7.83;;
81685;SDS011;71102;50.960;6.888;2024-03-08T11:03:00;12.55;;;7.80;;
81685;SDS011;71102;50.960;6.888;2024-03-08T11:07:57;13.38;;;8.45;;
81685;SDS011;71102;50.960;6.888;2024-03-08T11:10:22;13.07;;;8.33;;
81685;SDS011;71102;50.960;6.888;2024-03-08T11:12:47;12.73;;;9.55;;
81685;SDS011;71102;50.960;6.888;2024-03-08T11:15:13;14.50;;;9.30;;
81685;SDS011;71102;50.960;6.888;2024-03-08T11:20:03;12.63;;;7.33;;
81685;SDS011;71102;50.960;6.888;2024-03-08T11:22:33;13.82;;;8.27;;
81685;SDS011;71102;50.960;6.888;2024-03-08T11:25:01;13.63;;;8.63;;
81685;SDS011;71102;50.960;6.888;2024-03-08T11:27:31;13.30;;;7.95;;
81685;SDS011;71102;50.960;6.888;2024-03-08T11:30:06;13.13;;;7.70;;
81685;SDS011;71102;50.960;6.888;2024-03-08T11:32:31;14.55;;;8.82;;
81685;SDS011;71102;50.960;6.888;2024-03-08T11:34:57;12.27;;;8.10;;
81685;SDS011;71102;50.960;6.888;2024-03-08T11:37:24;12.90;;;9.50;;
81685;SDS011;71102;50.960;6.888;2024-03-08T11:39:53;12.83;;;7.33;;
81685;SDS011;71102;50.960;6.888;2024-03-08T11:42:19;15.13;;;9.77;;
81685;SDS011;71102;50.960;6.888;2024-03-08T11:44:47;13.98;;;9.15;;
81685;SDS011;71102;50.960;6.888;2024-03-08T11:47:12;13.05;;;8.13;;
81685;SDS011;71102;50.960;6.888;2024-03-08T11:49:37;14.87;;;9.43;;
81685;SDS011;71102;50.960;6.888;2024-03-08T11:52:03;17.08;;;9.15;;
81685;SDS011;71102;50.960;6.888;2024-03-08T11:54:28;12.25;;;8.30;;
81685;SDS011;71102;50.960;6.888;2024-03-08T11:56:54;15.68;;;9.30;;
81685;SDS011;71102;50.960;6.888;2024-03-08T11:59:19;12.48;;;7.53;;
81685;SDS011;71102;50.960;6.888;2024-03-08T12:01:56;14.07;;;8.87;;
81685;SDS011;71102;50.960;6.888;2024-03-08T12:04:21;13.48;;;8.30;;
81685;SDS011;71102;50.960;6.888;2024-03-08T12:06:46;14.27;;;8.47;;
81685;SDS011;71102;50.960;6.888;2024-03-08T12:09:11;12.83;;;8.13;;
81685;SDS011;71102;50.960;6.888;2024-03-08T12:11:37;15.25;;;9.00;;
81685;SDS011;71102;50.960;6.888;2024-03-08T12:14:03;12.35;;;6.90;;
81685;SDS011;71102;50.960;6.888;2024-03-08T12:16:28;15.85;;;9.25;;
81685;SDS011;71102;50.960;6.888;2024-03-08T12:18:53;17.30;;;8.60;;
81685;SDS011;71102;50.960;6.888;2024-03-08T12:21:20;16.17;;;8.80;;
81685;SDS011;71102;50.960;6.888;2024-03-08T12:23:45;13.02;;;8.38;;
81685;SDS011;71102;50.960;6.888;2024-03-08T12:26:14;14.32;;;8.80;;
81685;SDS011;71102;50.960;6.888;2024-03-08T12:28:40;13.85;;;8.52;;
81685;SDS011;71102;50.960;6.888;2024-03-08T12:31:07;14.48;;;10.00;;
81685;SDS011;71102;50.960;6.888;2024-03-08T12:33:32;12.75;;;7.50;;
81685;SDS011;71102;50.960;6.888;2024-03-08T12:35:57;12.17;;;7.27;;
81685;SDS011;71102;50.960;6.888;2024-03-08T12:38:22;11.90;;;8.17;;
81685;SDS011;71102;50.960;6.888;2024-03-08T12:40:48;13.77;;;10.17;;
81685;SDS011;71102;50.960;6.888;2024-03-08T12:43:13;12.03;;;8.57;;
81685;SDS011;71102;50.960;6.888;2024-03-08T12:45:38;12.77;;;9.67;;
81685;SDS011;71102;50.960;6.888;2024-03-08T12:48:03;12.43;;;10.20;;
81685;SDS011;71102;50.960;6.888;2024-03-08T12:50:37;11.50;;;8.48;;
81685;SDS011;71102;50.960;6.888;2024-03-08T12:53:02;11.60;;;8.50;;
81685;SDS011;71102;50.960;6.888;2024-03-08T12:55:27;12.80;;;8.20;;
81685;SDS011;71102;50.960;6.888;2024-03-08T12:57:53;13.60;;;8.67;;
81685;SDS011;71102;50.960;6.888;2024-03-08T13:00:18;10.37;;;6.20;;
81685;SDS011;71102;50.960;6.888;2024-03-08T13:02:43;10.80;;;8.13;;
81685;SDS011;71102;50.960;6.888;2024-03-08T13:05:08;11.23;;;8.43;;
81685;SDS011;71102;50.960;6.888;2024-03-08T13:07:33;11.43;;;8.87;;
81685;SDS011;71102;50.960;6.888;2024-03-08T13:09:59;12.77;;;9.20;;
81685;SDS011;71102;50.960;6.888;2024-03-08T13:12:24;12.20;;;8.90;;
81685;SDS011;71102;50.960;6.888;2024-03-08T13:14:49;11.70;;;9.37;;
81685;SDS011;71102;50.960;6.888;2024-03-08T13:17:15;11.60;;;8.77;;
81685;SDS011;71102;50.960;6.888;2024-03-08T13:19:40;11.57;;;8.55;;
81685;SDS011;71102;50.960;6.888;2024-03-08T13:22:05;10.73;;;7.95;;
81685;SDS011;71102;50.960;6.888;2024-03-08T13:24:30;10.93;;;7.67;;
81685;SDS011;71102;50.960;6.888;2024-03-08T13:26:56;10.60;;;7.93;;
81685;SDS011;71102;50.960;6.888;2024-03-08T13:29:21;11.77;;;7.90;;
81685;SDS011;71102;50.960;6.888;2024-03-08T13:31:46;11.73;;;8.23;;
81685;SDS011;71102;50.960;6.888;2024-03-08T13:34:11;11.50;;;8.80;;
81685;SDS011;71102;50.960;6.888;2024-03-08T13:36:37;11.43;;;8.17;;
81685;SDS011;71102;50.960;6.888;2024-03-08T13:39:02;10.70;;;8.33;;
81685;SDS011;71102;50.960;6.888;2024-03-08T13:41:27;11.10;;;8.33;;
81685;SDS011;71102;50.960;6.888;2024-03-08T13:43:52;13.07;;;8.63;;
81685;SDS011;71102;50.960;6.888;2024-03-08T13:46:17;11.33;;;7.77;;
81685;SDS011;71102;50.960;6.888;2024-03-08T13:48:43;11.20;;;8.80;;
81685;SDS011;71102;50.960;6.888;2024-03-08T13:51:08;10.83;;;7.70;;
81685;SDS011;71102;50.960;6.888;2024-03-08T13:53:33;13.47;;;8.57;;
81685;SDS011;71102;50.960;6.888;2024-03-08T13:55:59;10.33;;;7.87;;
81685;SDS011;71102;50.960;6.888;2024-03-08T13:58:24;11.52;;;6.43;;
81685;SDS011;71102;50.960;6.888;2024-03-08T14:00:49;11.23;;;7.33;;
81685;SDS011;71102;50.960;6.888;2024-03-08T14:03:14;10.27;;;7.33;;
81685;SDS011;71102;50.960;6.888;2024-03-08T14:05:40;11.63;;;8.53;;
81685;SDS011;71102;50.960;6.888;2024-03-08T14:08:09;11.32;;;7.60;;
81685;SDS011;71102;50.960;6.888;2024-03-08T14:10:34;10.68;;;7.95;;
81685;SDS011;71102;50.960;6.888;2024-03-08T14:12:59;10.10;;;6.40;;
81685;SDS011;71102;50.960;6.888;2024-03-08T14:15:25;11.00;;;7.80;;
81685;SDS011;71102;50.960;6.888;2024-03-08T14:17:53;12.07;;;8.27;;
81685;SDS011;71102;50.960;6.888;2024-03-08T14:20:18;12.35;;;8.05;;
81685;SDS011;71102;50.960;6.888;2024-03-08T14:22:43;11.07;;;7.37;;
81685;SDS011;71102;50.960;6.888;2024-03-08T14:25:09;10.23;;;7.33;;